Time;durP1;ratioP1;P1;durP2;ratioP2;P2;SDS_P1;SDS_P2;PMS_P1;PMS_P2;Temp;Humidity;BMP_temperature;BMP_pressure;BME280_temperature;BME280_humidity;BME280_pressure;Samples;Min_cycle;Max_cycle;Signal;HPM_P1;HPM_P2
2021/03/30 00:00:18;;;;;;;8.40;2.53;;;;;;;8.09;45.42;95075.63;5089428;28;20023;-71
2021/03/30 00:02:44;;;;;;;7.75;2.97;;;;;;;8.04;45.43;95078.31;5090375;28;20034;-71
2021/03/30 00:05:10;;;;;;;7.28;2.88;;;;;;;7.99;45.83;95065.00;5090666;28;20445;-71
2021/03/30 00:07:35;;;;;;;7.45;2.75;;;;;;;7.92;45.59;95062.63;5089205;28;20039;-71
2021/03/30 00:10:02;;;;;;;8.45;2.42;;;;;;;7.92;45.83;95067.16;5088922;28;20028;-71
2021/03/30 00:12:28;;;;;;;4.65;2.55;;;;;;;7.84;45.59;95058.66;5090342;28;20066;-71
2021/03/30 00:14:53;;;;;;;4.88;2.45;;;;;;;7.82;45.80;95054.69;5089182;28;20460;-71
2021/03/30 00:17:19;;;;;;;8.60;3.45;;;;;;;7.91;45.50;95049.63;5089917;28;20081;-71
2021/03/30 00:19:44;;;;;;;12.25;2.15;;;;;;;7.86;45.40;95046.97;5090489;28;20050;-71
2021/03/30 00:22:10;;;;;;;6.15;2.47;;;;;;;7.80;45.33;95052.28;5088668;28;20024;-72
2021/03/30 00:24:35;;;;;;;7.47;2.75;;;;;;;7.82;45.11;95044.06;5090242;28;20478;-72
2021/03/30 00:27:01;;;;;;;13.95;3.20;;;;;;;7.68;45.53;95049.09;5088623;28;20387;-72
2021/03/30 00:29:26;;;;;;;7.00;3.00;;;;;;;7.76;45.25;95048.56;5090150;28;20020;-72
2021/03/30 00:31:52;;;;;;;7.35;2.92;;;;;;;7.80;44.87;95048.84;5088799;28;20117;-72
2021/03/30 00:34:17;;;;;;;14.07;2.42;;;;;;;7.79;44.62;95048.03;5089744;28;20047;-72
2021/03/30 00:36:42;;;;;;;9.95;3.35;;;;;;;7.84;44.86;95047.25;5088659;28;20035;-72
2021/03/30 00:39:08;;;;;;;6.97;2.70;;;;;;;7.93;44.43;95045.63;5089634;28;20089;-72
2021/03/30 00:41:43;;;;;;;9.57;3.15;;;;;;;8.01;44.19;95046.97;5090081;28;20052;-72
2021/03/30 00:44:12;;;;;;;6.03;2.30;;;;;;;8.09;44.35;95050.94;5089106;28;20347;-72
2021/03/30 00:46:39;;;;;;;9.55;3.38;;;;;;;8.17;43.84;95037.13;5089790;28;20040;-72
2021/03/30 00:49:04;;;;;;;7.68;2.70;;;;;;;8.20;44.01;95040.03;5089948;28;20111;-72
2021/03/30 00:51:30;;;;;;;14.25;2.92;;;;;;;8.21;43.91;95033.66;5089540;28;20110;-72
2021/03/30 00:53:55;;;;;;;9.57;3.45;;;;;;;8.18;44.18;95030.72;5088696;28;20031;-71
2021/03/30 00:56:21;;;;;;;11.68;2.88;;;;;;;8.07;44.12;95029.97;5088184;28;20543;-71
2021/03/30 00:58:48;;;;;;;10.57;3.67;;;;;;;8.05;44.50;95024.13;5089930;28;20031;-71
2021/03/30 01:01:14;;;;;;;10.90;3.95;;;;;;;8.02;44.63;95024.66;5089623;28;20028;-71
2021/03/30 01:03:39;;;;;;;8.75;3.08;;;;;;;8.02;44.41;95025.47;5088257;28;20089;-71
2021/03/30 01:06:05;;;;;;;9.52;3.45;;;;;;;8.08;44.01;95028.91;5092825;28;20088;-71
2021/03/30 01:08:42;;;;;;;9.75;2.92;;;;;;;8.09;44.46;95029.69;5096261;28;20027;-71
2021/03/30 01:11:08;;;;;;;12.93;4.30;;;;;;;8.09;44.63;95032.34;5096313;28;20102;-71
2021/03/30 01:13:58;;;;;;;8.93;3.55;;;;;;;8.09;44.85;95029.69;5094792;28;20118;-71
2021/03/30 01:16:36;;;;;;;6.78;2.83;;;;;;;7.99;45.09;95022.53;5096202;28;20043;-72
2021/03/30 01:19:23;;;;;;;6.43;2.40;;;;;;;7.87;45.86;95028.13;5096465;28;20027;-71
2021/03/30 01:22:19;;;;;;;7.45;2.38;;;;;;;7.65;46.09;95028.38;5094972;28;20019;-71
2021/03/30 01:24:54;;;;;;;5.50;2.58;;;;;;;7.40;46.39;95037.94;5095003;28;20035;-71
2021/03/30 01:27:47;;;;;;;6.80;2.40;;;;;;;7.31;46.48;95046.69;5096493;28;20085;-71
2021/03/30 01:30:15;;;;;;;6.82;2.60;;;;;;;7.09;47.17;95033.66;5096077;28;20028;-71
2021/03/30 01:33:08;;;;;;;7.32;2.80;;;;;;;7.00;46.95;95038.63;5095983;28;20151;-71
2021/03/30 01:35:36;;;;;;;8.05;2.65;;;;;;;6.94;47.37;95043.16;5094646;28;20476;-71
2021/03/30 01:38:02;;;;;;;7.32;2.72;;;;;;;6.89;47.17;95040.47;5096297;28;20449;-71
2021/03/30 01:40:31;;;;;;;7.50;2.88;;;;;;;6.81;46.97;95040.97;5094654;28;20038;-71
2021/03/30 01:42:58;;;;;;;5.85;2.83;;;;;;;6.79;47.35;95035.13;5095946;28;20035;-70
2021/03/30 01:45:24;;;;;;;10.85;3.13;;;;;;;6.75;47.17;95032.22;5094924;28;20032;-71
2021/03/30 01:47:52;;;;;;;4.82;2.38;;;;;;;6.70;47.27;95032.22;5094736;28;20038;-71
2021/03/30 01:50:18;;;;;;;8.20;3.30;;;;;;;6.65;47.16;95032.16;5095943;28;20417;-70
2021/03/30 01:52:44;;;;;;;5.38;2.60;;;;;;;6.65;47.14;95029.53;5095800;28;20038;-71
2021/03/30 01:55:13;;;;;;;9.90;2.83;;;;;;;6.56;47.38;95031.88;5096021;28;20392;-71
2021/03/30 01:57:40;;;;;;;4.63;2.60;;;;;;;6.59;47.35;95031.38;5095778;28;20024;-71
2021/03/30 02:00:09;;;;;;;5.28;2.53;;;;;;;6.52;47.11;95030.00;5096002;28;20020;-71
2021/03/30 02:02:35;;;;;;;10.73;3.35;;;;;;;6.44;47.17;95012.75;5096040;28;20028;-71
2021/03/30 02:05:02;;;;;;;10.48;3.17;;;;;;;6.50;46.78;95017.03;5094632;28;20540;-71
2021/03/30 02:07:28;;;;;;;4.70;2.30;;;;;;;6.56;46.74;95023.94;5094535;28;20060;-71
2021/03/30 02:09:58;;;;;;;5.18;2.88;;;;;;;6.52;46.90;95014.91;5095569;28;20052;-71
2021/03/30 02:12:29;;;;;;;12.90;3.35;;;;;;;6.52;47.13;95008.81;5095908;28;20039;-71
2021/03/30 02:14:55;;;;;;;5.43;2.85;;;;;;;6.52;46.88;94999.00;5094518;28;20034;-70
2021/03/30 02:17:37;;;;;;;4.35;2.40;;;;;;;6.54;46.34;95012.81;5093247;28;20103;-71
2021/03/30 02:20:03;;;;;;;;;;;;;;;6.50;46.19;95006.44;5093117;28;20024;-71
2021/03/30 02:22:56;;;;;;;12.02;2.40;;;;;;;6.49;46.17;95002.16;5090946;28;19951;-71
2021/03/30 02:25:22;;;;;;;7.28;2.80;;;;;;;6.47;46.26;95006.94;5092657;28;20020;-71
2021/03/30 02:27:51;;;;;;;6.55;2.35;;;;;;;6.40;46.58;94999.22;5090907;28;20387;-70
2021/03/30 02:30:19;;;;;;;8.85;2.90;;;;;;;6.40;46.35;95001.88;5092489;28;20528;-70
2021/03/30 02:32:47;;;;;;;8.38;3.45;;;;;;;6.48;46.47;95003.25;5091941;28;20447;-71
2021/03/30 02:35:14;;;;;;;7.00;2.38;;;;;;;6.51;46.80;95007.22;5092312;28;20123;-70
2021/03/30 02:37:41;;;;;;;7.75;3.30;;;;;;;6.55;46.81;95006.44;5092587;28;20116;-71
2021/03/30 02:40:11;;;;;;;9.43;2.50;;;;;;;6.48;46.51;95005.09;5090748;28;20057;-71
2021/03/30 02:42:39;;;;;;;6.68;2.55;;;;;;;6.37;46.76;95001.59;5090841;28;20042;-71
2021/03/30 02:45:05;;;;;;;5.65;2.50;;;;;;;6.35;46.78;95009.81;5090670;28;20058;-71
2021/03/30 02:47:33;;;;;;;7.22;2.72;;;;;;;6.27;46.77;95009.47;5090720;28;20020;-71
2021/03/30 02:50:01;;;;;;;5.88;2.38;;;;;;;6.21;46.88;95004.19;5091970;28;20024;-71
2021/03/30 02:52:27;;;;;;;7.45;3.20;;;;;;;6.18;46.87;95014.47;5090933;28;20418;-71
2021/03/30 02:54:54;;;;;;;14.95;5.43;;;;;;;6.17;47.15;95004.97;5090425;28;20036;-71
2021/03/30 02:57:22;;;;;;;10.77;4.30;;;;;;;6.14;47.11;95014.19;5091834;28;20024;-70
2021/03/30 02:59:49;;;;;;;8.98;4.00;;;;;;;6.08;46.98;95009.13;5090704;28;20063;-71
2021/03/30 03:02:15;;;;;;;7.18;3.72;;;;;;;6.05;46.98;95010.44;5091638;28;20028;-70
2021/03/30 03:04:44;;;;;;;7.38;2.78;;;;;;;6.01;47.19;95009.38;5091740;28;20036;-70
2021/03/30 03:07:09;;;;;;;7.45;2.50;;;;;;;5.94;47.26;95008.75;5090152;28;20035;-70
2021/03/30 03:09:36;;;;;;;7.65;3.05;;;;;;;5.94;47.13;95008.75;5090331;28;20031;-70
2021/03/30 03:12:02;;;;;;;9.43;2.83;;;;;;;5.94;47.10;95012.22;5090075;28;20020;-70
2021/03/30 03:14:29;;;;;;;7.93;2.85;;;;;;;5.96;47.04;95018.06;5091590;28;20032;-70
2021/03/30 03:16:56;;;;;;;7.72;2.47;;;;;;;5.95;46.97;95011.19;5091502;28;20470;-70
2021/03/30 03:19:23;;;;;;;4.13;2.13;;;;;;;5.94;46.96;95019.34;5088936;28;20034;-71
2021/03/30 03:21:49;;;;;;;7.75;2.63;;;;;;;5.94;46.94;95024.63;5091312;28;20104;-70
2021/03/30 03:24:15;;;;;;;5.95;2.92;;;;;;;5.96;46.90;95009.31;5089901;28;20056;-71
2021/03/30 03:26:41;;;;;;;6.45;2.47;;;;;;;5.97;46.70;95010.94;5091316;28;20035;-70
2021/03/30 03:29:16;;;;;;;5.88;2.78;;;;;;;5.96;46.83;95017.25;5090659;28;20039;-70
2021/03/30 03:31:43;;;;;;;7.50;2.40;;;;;;;5.96;47.06;95007.50;5089741;28;20423;-70
2021/03/30 03:34:09;;;;;;;7.93;2.63;;;;;;;5.90;46.99;95011.09;5089665;28;20121;-71
2021/03/30 03:36:46;;;;;;;8.02;2.70;;;;;;;5.89;47.40;95016.66;5089835;28;20035;-71
2021/03/30 03:39:17;;;;;;;4.18;2.30;;;;;;;5.89;47.24;95006.88;5089654;28;20135;-71
2021/03/30 03:41:44;;;;;;;6.35;2.58;;;;;;;5.92;47.21;95016.16;5091071;28;20035;-70
2021/03/30 03:44:10;;;;;;;12.38;3.03;;;;;;;5.96;47.43;95006.66;5090957;28;20032;-71
2021/03/30 03:46:36;;;;;;;5.22;2.15;;;;;;;5.97;47.36;95010.94;5090941;28;20028;-70
2021/03/30 03:49:04;;;;;;;9.23;2.88;;;;;;;5.97;47.13;95006.41;5091076;28;20088;-70
2021/03/30 03:51:34;;;;;;;4.13;2.40;;;;;;;5.94;47.28;95011.38;5089485;28;20398;-71
2021/03/30 03:54:03;;;;;;;19.02;3.30;;;;;;;5.91;47.26;95015.34;5089517;28;20031;-70
2021/03/30 03:56:33;;;;;;;6.78;2.50;;;;;;;5.87;47.47;95003.69;5089266;28;20024;-70
2021/03/30 03:59:08;;;;;;;9.90;2.65;;;;;;;5.86;47.43;95011.88;5089303;28;20039;-71
2021/03/30 04:01:43;;;;;;;6.63;2.63;;;;;;;5.80;47.52;95017.16;5090627;28;20028;-71
2021/03/30 04:04:22;;;;;;;9.00;2.33;;;;;;;5.77;47.38;95024.78;5090537;28;20052;-71
2021/03/30 04:06:51;;;;;;;7.40;2.67;;;;;;;5.80;47.38;95030.38;5090350;28;20110;-71
2021/03/30 04:09:20;;;;;;;8.13;3.03;;;;;;;5.82;47.69;95027.44;5089049;28;20051;-71
2021/03/30 04:11:51;;;;;;;13.32;3.30;;;;;;;5.84;47.75;95030.63;5088924;28;20447;-71
2021/03/30 04:14:18;;;;;;;14.73;3.63;;;;;;;5.86;48.31;95031.19;5088880;28;20031;-71
2021/03/30 04:16:44;;;;;;;9.85;3.30;;;;;;;5.88;48.09;95047.59;5090505;28;20024;-71
2021/03/30 04:19:13;;;;;;;22.00;3.35;;;;;;;5.87;47.56;95042.59;5090170;28;20024;-71
2021/03/30 04:21:39;;;;;;;15.40;3.90;;;;;;;5.85;47.87;95048.13;5088917;28;20024;-70
2021/03/30 04:24:10;;;;;;;6.25;2.55;;;;;;;5.75;47.94;95048.84;5089072;28;20490;-70
2021/03/30 04:26:40;;;;;;;6.13;2.63;;;;;;;5.60;47.97;95048.72;5090104;28;20111;-70
2021/03/30 04:29:07;;;;;;;6.57;2.70;;;;;;;5.52;48.26;95043.91;5088754;28;20016;-70
2021/03/30 04:31:32;;;;;;;8.77;2.80;;;;;;;5.42;48.55;95042.75;5088640;28;20077;-71
2021/03/30 04:33:58;;;;;;;5.93;2.45;;;;;;;5.38;48.59;95041.66;5089907;28;20495;-71
2021/03/30 04:36:24;;;;;;;7.00;2.67;;;;;;;5.46;48.43;95050.19;5088568;28;20422;-71
2021/03/30 04:38:50;;;;;;;6.05;3.05;;;;;;;5.48;48.08;95054.19;5090026;28;20024;-71
2021/03/30 04:41:15;;;;;;;5.75;2.17;;;;;;;5.48;48.20;95048.09;5089438;28;20032;-71
2021/03/30 04:43:40;;;;;;;8.23;2.63;;;;;;;5.43;47.93;95052.31;5089787;28;20024;-71
2021/03/30 04:46:07;;;;;;;6.32;2.10;;;;;;;5.49;48.04;95045.19;5090027;28;20031;-71
2021/03/30 04:48:34;;;;;;;5.43;2.78;;;;;;;5.60;47.81;95046.09;5089629;28;20080;-71
2021/03/30 04:51:00;;;;;;;11.50;2.47;;;;;;;5.66;47.64;95045.06;5088303;28;20080;-71
2021/03/30 04:53:25;;;;;;;10.10;2.47;;;;;;;5.74;47.41;95041.16;5089559;28;20028;-71
2021/03/30 04:55:51;;;;;;;9.95;2.97;;;;;;;5.85;47.13;95047.34;5089749;28;20418;-71
2021/03/30 04:58:16;;;;;;;7.80;3.08;;;;;;;5.91;46.82;95046.31;5088385;28;20027;-71
2021/03/30 05:00:42;;;;;;;9.95;2.28;;;;;;;6.01;46.84;95046.41;5089609;28;20102;-71
2021/03/30 05:03:07;;;;;;;11.98;3.03;;;;;;;6.13;46.66;95054.19;5089695;28;20030;-71
2021/03/30 05:05:32;;;;;;;5.75;2.65;;;;;;;6.26;46.71;95048.41;5089690;28;20099;-71
2021/03/30 05:07:58;;;;;;;13.07;2.97;;;;;;;6.38;46.49;95050.88;5089674;28;20032;-71
2021/03/30 05:10:25;;;;;;;18.20;3.63;;;;;;;6.52;46.82;95046.69;5088271;28;20483;-71
2021/03/30 05:12:50;;;;;;;19.63;3.00;;;;;;;6.62;46.84;95044.09;5088048;28;20028;-71
2021/03/30 05:15:16;;;;;;;20.15;4.60;;;;;;;6.69;47.38;95045.69;5089611;28;20069;-71
2021/03/30 05:17:41;;;;;;;25.20;7.82;;;;;;;6.74;46.73;95051.03;5089138;28;20099;-71
2021/03/30 05:20:07;;;;;;;30.25;5.57;;;;;;;6.81;46.24;95054.22;5088208;28;20039;-71
2021/03/30 05:22:33;;;;;;;30.98;5.07;;;;;;;6.77;46.22;95051.28;5089610;28;20427;-71
2021/03/30 05:25:00;;;;;;;25.13;5.70;;;;;;;6.76;46.22;95044.41;5088243;28;20021;-72
2021/03/30 05:27:25;;;;;;;31.05;5.65;;;;;;;6.74;46.73;95048.38;5088470;28;20058;-72
2021/03/30 05:29:51;;;;;;;27.15;6.10;;;;;;;6.78;46.66;95044.94;5089571;28;20106;-72
2021/03/30 05:32:18;;;;;;;20.77;5.75;;;;;;;6.85;47.01;95055.31;5088196;28;20024;-72
2021/03/30 05:34:46;;;;;;;34.45;6.43;;;;;;;6.87;47.34;95047.88;5088112;28;20044;-71
2021/03/30 05:37:11;;;;;;;29.02;7.78;;;;;;;6.97;47.83;95047.91;5089493;28;20376;-71
2021/03/30 05:39:37;;;;;;;14.90;5.55;;;;;;;7.00;47.55;95057.19;5088450;28;20034;-71
2021/03/30 05:42:03;;;;;;;30.38;6.85;;;;;;;7.04;46.91;95058.28;5089060;28;20032;-71
2021/03/30 05:44:30;;;;;;;22.77;6.63;;;;;;;7.06;47.42;95060.66;5089446;28;20091;-71
2021/03/30 05:49:27;;;;;;;22.58;6.72;;;;;;;7.17;47.79;95063.09;5089540;28;20058;-71
2021/03/30 05:51:54;;;;;;;19.67;6.22;;;;;;;7.23;47.38;95072.66;5090473;28;20408;-71
2021/03/30 05:54:20;;;;;;;23.05;6.88;;;;;;;7.30;47.42;95072.38;5093377;28;20047;-71
2021/03/30 05:56:46;;;;;;;25.10;6.72;;;;;;;7.41;47.25;95075.88;5091661;28;20024;-71
2021/03/30 05:59:13;;;;;;;43.38;6.50;;;;;;;7.53;46.38;95078.25;5092836;28;20024;-71
2021/03/30 06:01:40;;;;;;;23.52;5.07;;;;;;;7.59;45.16;95077.22;5093139;28;20464;-71
2021/03/30 06:04:08;;;;;;;14.50;3.72;;;;;;;7.68;44.46;95075.63;5092921;28;20051;-71
2021/03/30 06:06:34;;;;;;;10.43;3.75;;;;;;;7.75;44.16;95078.81;5093150;28;20020;-71
2021/03/30 06:09:03;;;;;;;19.38;3.85;;;;;;;7.74;43.94;95081.75;5091547;28;20069;-73
2021/03/30 06:11:28;;;;;;;9.05;2.95;;;;;;;7.79;43.26;95079.88;5091273;28;20026;-76
2021/03/30 06:13:55;;;;;;;14.75;3.53;;;;;;;7.82;43.24;95084.66;5092739;28;20461;-77
2021/03/30 06:16:26;;;;;;;7.13;2.55;;;;;;;7.88;42.24;95088.13;5091579;28;20024;-78
2021/03/30 06:19:06;;;;;;;5.78;2.80;;;;;;;7.88;41.67;95082.03;5093158;28;20081;-75
2021/03/30 06:21:35;;;;;;;16.75;4.07;;;;;;;7.86;42.22;95084.94;5091823;28;20032;-77
2021/03/30 06:24:00;;;;;;;9.40;3.03;;;;;;;7.93;41.39;95097.94;5088883;28;20035;-77
2021/03/30 06:26:27;;;;;;;10.60;3.95;;;;;;;7.95;41.02;95093.16;5092290;28;20406;-77
2021/03/30 06:28:53;;;;;;;11.57;3.80;;;;;;;7.96;40.37;95081.50;5092575;28;20483;-77
2021/03/30 06:31:19;;;;;;;16.05;4.30;;;;;;;8.00;40.69;95083.34;5092093;28;20028;-74
2021/03/30 06:33:54;;;;;;;8.70;3.60;;;;;;;8.06;40.98;95088.63;5089979;28;20032;-75
2021/03/30 06:36:24;;;;;;;18.25;4.07;;;;;;;8.13;41.34;95089.19;5092062;28;20088;-73
2021/03/30 06:38:54;;;;;;;12.05;4.22;;;;;;;8.17;40.93;95090.22;5090731;28;20020;-76
2021/03/30 06:41:26;;;;;;;28.02;4.25;;;;;;;8.27;40.94;95092.09;5090484;28;20027;-70
2021/03/30 06:44:25;;;;;;;17.05;4.45;;;;;;;8.32;40.82;95090.19;5090606;28;20024;-69
2021/03/30 06:46:56;;;;;;;15.18;4.18;;;;;;;8.40;40.90;95088.84;5092058;28;20024;-70
2021/03/30 06:49:23;;;;;;;21.58;4.55;;;;;;;8.44;40.82;95089.94;5090377;28;20027;-71
2021/03/30 06:51:49;;;;;;;9.52;3.72;;;;;;;8.49;39.88;95076.66;5090515;28;20032;-70
2021/03/30 06:54:15;;;;;;;24.90;4.20;;;;;;;8.44;39.32;95084.63;5091902;28;20032;-70
2021/03/30 06:56:53;;;;;;;15.35;4.40;;;;;;;8.49;40.15;95084.63;5089384;28;20016;-70
2021/03/30 06:59:20;;;;;;;5.65;2.92;;;;;;;8.58;37.30;95087.53;5090001;28;20020;-70
2021/03/30 07:01:47;;;;;;;12.63;3.10;;;;;;;8.68;36.93;95089.38;5090074;28;20027;-69
2021/03/30 07:04:13;;;;;;;7.60;2.72;;;;;;;8.76;37.35;95086.16;5089423;28;20088;-70
2021/03/30 07:06:40;;;;;;;13.35;4.45;;;;;;;8.89;37.72;95082.91;5091567;28;20032;-70
2021/03/30 07:09:09;;;;;;;13.13;3.80;;;;;;;8.91;38.05;95091.41;5091601;28;20027;-71
2021/03/30 07:11:37;;;;;;;11.52;3.58;;;;;;;9.01;36.78;95082.59;5091161;28;20515;-71
2021/03/30 07:14:03;;;;;;;9.27;4.00;;;;;;;9.03;35.45;95083.91;5090169;28;20027;-71
2021/03/30 07:16:32;;;;;;;7.15;3.03;;;;;;;9.16;35.05;95081.72;5091217;28;20391;-72
2021/03/30 07:19:02;;;;;;;10.60;3.83;;;;;;;9.15;35.41;95088.13;5091409;28;20028;-70
2021/03/30 07:21:43;;;;;;;9.07;3.13;;;;;;;9.18;35.57;95088.38;5089771;28;20016;-71
2021/03/30 07:24:11;;;;;;;7.18;2.85;;;;;;;9.19;35.49;95078.53;5091293;28;20017;-71
2021/03/30 07:26:49;;;;;;;8.98;3.03;;;;;;;9.20;34.51;95085.44;5090995;28;20168;-72
2021/03/30 07:29:23;;;;;;;9.82;2.97;;;;;;;9.11;35.03;95087.06;5091177;28;20471;-71
2021/03/30 07:32:16;;;;;;;6.72;3.38;;;;;;;9.12;35.77;95088.66;5089506;28;20510;-71
2021/03/30 07:34:41;;;;;;;12.18;4.15;;;;;;;9.26;35.63;95089.69;5089093;28;20135;-71
2021/03/30 07:37:17;;;;;;;11.50;2.83;;;;;;;9.28;35.27;95098.19;5090007;28;20067;-71
2021/03/30 07:39:55;;;;;;;9.90;3.25;;;;;;;9.34;35.82;95086.44;5091157;28;20560;-71
2021/03/30 07:42:21;;;;;;;8.25;4.03;;;;;;;9.42;35.61;95093.84;5089994;28;20073;-71
2021/03/30 07:44:49;;;;;;;8.90;3.58;;;;;;;9.48;34.29;95094.59;5090545;28;20021;-72
2021/03/30 07:47:16;;;;;;;14.23;3.97;;;;;;;9.49;34.33;95098.06;5089447;28;20036;-71
2021/03/30 07:49:47;;;;;;;12.70;3.72;;;;;;;9.36;34.60;95097.59;5090428;28;20498;-70
2021/03/30 07:52:20;;;;;;;15.65;3.75;;;;;;;9.43;34.71;95100.75;5089386;28;20139;-71
2021/03/30 07:55:29;;;;;;;8.23;2.92;;;;;;;9.51;35.05;95093.25;5089215;28;20035;-71
2021/03/30 07:58:01;;;;;;;9.30;3.50;;;;;;;9.63;35.05;95096.38;5090527;28;20031;-72
2021/03/30 08:00:32;;;;;;;11.73;3.83;;;;;;;9.70;34.64;95099.50;5090361;28;20407;-69
2021/03/30 08:03:04;;;;;;;12.40;3.70;;;;;;;9.77;34.29;95101.84;5090409;28;20823;-69
2021/03/30 08:05:33;;;;;;;7.72;4.05;;;;;;;9.87;34.30;95101.00;5089077;28;20058;-69
2021/03/30 08:07:58;;;;;;;12.95;3.33;;;;;;;9.94;34.15;95098.81;5090175;28;20092;-69
2021/03/30 08:10:25;;;;;;;7.93;3.90;;;;;;;9.97;33.53;95103.56;5088676;28;20350;-70
2021/03/30 08:13:25;;;;;;;8.10;3.95;;;;;;;10.07;33.92;95102.69;5088524;28;20119;-70
2021/03/30 08:15:53;;;;;;;10.20;3.83;;;;;;;10.15;33.55;95094.09;5088932;28;20028;-70
2021/03/30 08:18:21;;;;;;;12.70;3.70;;;;;;;10.20;33.91;95096.75;5089321;28;20027;-70
2021/03/30 08:20:58;;;;;;;13.30;3.58;;;;;;;10.36;34.26;95092.06;5090327;28;20462;-70
2021/03/30 08:23:25;;;;;;;13.90;3.55;;;;;;;10.47;33.06;95095.47;5088955;28;21609;-71
2021/03/30 08:25:53;;;;;;;10.98;3.70;;;;;;;10.50;32.73;95097.56;5086251;28;20040;-70
2021/03/30 08:28:57;;;;;;;9.13;3.97;;;;;;;10.58;32.02;95097.75;5090130;28;20027;-71
2021/03/30 08:31:23;;;;;;;10.65;4.10;;;;;;;10.62;31.72;95088.09;5088436;28;20020;-70
2021/03/30 08:33:52;;;;;;;9.60;3.67;;;;;;;10.68;32.05;95088.03;5088355;28;20040;-71
2021/03/30 08:36:23;;;;;;;11.52;4.10;;;;;;;10.79;31.91;95092.19;5089922;28;20455;-71
2021/03/30 08:38:52;;;;;;;11.18;5.45;;;;;;;10.92;32.49;95094.16;5090054;28;20020;-71
2021/03/30 08:41:43;;;;;;;6.28;3.33;;;;;;;11.06;31.79;95090.81;5089890;28;20119;-70
2021/03/30 08:44:22;;;;;;;6.33;3.00;;;;;;;11.15;30.92;95091.75;5041902;28;20074;-70
2021/03/30 08:46:53;;;;;;;7.85;3.78;;;;;;;11.08;30.36;95084.13;5088330;28;20463;-70
2021/03/30 08:49:37;;;;;;;10.88;3.53;;;;;;;11.06;30.65;95093.50;5088369;28;20082;-70
2021/03/30 08:52:11;;;;;;;17.00;4.15;;;;;;;11.02;31.70;95086.03;5088480;28;20052;-71
2021/03/30 08:54:50;;;;;;;16.40;4.18;;;;;;;11.01;32.41;95092.47;5089812;28;20559;-71
2021/03/30 08:57:21;;;;;;;10.65;3.55;;;;;;;11.07;30.72;95092.41;5086721;28;20051;-70
2021/03/30 08:59:47;;;;;;;10.73;3.55;;;;;;;10.89;30.40;95088.59;5089780;28;20488;-71
2021/03/30 09:02:12;;;;;;;12.23;3.38;;;;;;;10.78;30.79;95087.94;5089780;28;20081;-70
2021/03/30 09:04:44;;;;;;;15.10;3.95;;;;;;;10.79;30.61;95081.53;5088579;28;20027;-71
2021/03/30 09:07:11;;;;;;;8.50;4.20;;;;;;;10.79;30.67;95070.88;5089908;28;20028;-71
2021/03/30 09:09:37;;;;;;;9.05;3.10;;;;;;;10.83;30.92;95082.56;5088441;28;20024;-70
2021/03/30 09:12:16;;;;;;;12.15;4.35;;;;;;;10.96;30.43;95081.06;5089602;28;20027;-70
2021/03/30 09:14:41;;;;;;;6.90;2.83;;;;;;;10.98;29.45;95071.69;5089778;28;20020;-71
2021/03/30 09:17:09;;;;;;;8.60;2.60;;;;;;;11.13;29.22;95075.25;5088193;28;20027;-71
2021/03/30 09:19:44;;;;;;;5.18;2.63;;;;;;;11.27;28.07;95081.47;5089697;28;20040;-71
2021/03/30 09:22:35;;;;;;;9.63;3.42;;;;;;;11.30;28.03;95080.91;5088089;28;20111;-71
2021/03/30 09:27:48;;;;;;;6.20;2.75;;;;;;;11.35;28.54;95067.47;5092235;28;20487;-70
2021/03/30 09:30:16;;;;;;;8.68;2.75;;;;;;;11.43;29.62;95082.06;5093681;28;20027;-70
2021/03/30 09:32:43;;;;;;;12.98;3.20;;;;;;;11.49;29.24;95072.91;5093572;28;20482;-71
2021/03/30 09:35:12;;;;;;;13.35;2.95;;;;;;;11.55;29.49;95068.28;5086933;28;20079;-71
2021/03/30 09:37:56;;;;;;;9.40;2.90;;;;;;;11.62;28.77;95066.03;5091615;28;20111;-71
2021/03/30 09:40:25;;;;;;;4.75;2.45;;;;;;;11.63;30.36;95070.31;5092991;28;20055;-71
2021/03/30 09:42:52;;;;;;;12.13;3.20;;;;;;;11.74;28.33;95062.91;5091679;28;20020;-71
2021/03/30 09:45:31;;;;;;;9.43;2.95;;;;;;;11.81;28.75;95066.03;5093290;28;20471;-71
2021/03/30 09:48:01;;;;;;;7.00;2.63;;;;;;;11.87;27.88;95053.41;5090416;28;20046;-71
2021/03/30 09:50:28;;;;;;;4.68;2.53;;;;;;;11.75;28.60;95049.28;5091399;28;20024;-71
2021/03/30 09:53:01;;;;;;;8.88;2.85;;;;;;;11.74;28.87;95050.34;5092854;28;20024;-71
2021/03/30 09:55:48;;;;;;;8.70;3.40;;;;;;;11.83;29.94;95042.50;5092903;28;20023;-71
2021/03/30 09:58:17;;;;;;;11.48;3.95;;;;;;;12.01;30.65;95046.25;5091565;28;20027;-71
2021/03/30 10:00:50;;;;;;;9.52;4.00;;;;;;;12.25;29.80;95048.75;5093074;28;20047;-71
2021/03/30 10:03:17;;;;;;;15.73;6.53;;;;;;;12.44;29.97;95048.72;5092958;28;20051;-71
2021/03/30 10:05:44;;;;;;;24.40;9.48;;;;;;;12.55;29.17;95038.63;5092925;28;20028;-71
2021/03/30 10:08:23;;;;;;;9.68;3.20;;;;;;;12.62;28.08;95039.81;5092722;28;20403;-71
2021/03/30 10:10:51;;;;;;;7.30;3.75;;;;;;;12.66;28.78;95034.66;5092865;28;20024;-71
2021/03/30 10:13:26;;;;;;;57.75;20.05;;;;;;;12.83;28.54;95034.84;5092337;28;20378;-72
2021/03/30 10:15:52;;;;;;;23.55;8.35;;;;;;;12.98;28.96;95025.72;5091009;28;20027;-71
2021/03/30 10:18:18;;;;;;;24.63;10.52;;;;;;;13.16;28.53;95015.97;5092392;28;20089;-70
2021/03/30 10:20:47;;;;;;;11.65;3.50;;;;;;;13.21;27.88;95015.09;5091814;28;20016;-70
2021/03/30 10:23:15;;;;;;;8.10;4.38;;;;;;;13.40;28.12;95021.09;5090807;28;20479;-70
2021/03/30 10:25:42;;;;;;;10.02;3.00;;;;;;;13.62;26.60;95016.88;5091160;28;20047;-70
2021/03/30 10:28:08;;;;;;;16.52;3.10;;;;;;;13.59;26.67;95017.47;5088619;28;20060;-70
2021/03/30 10:30:43;;;;;;;12.85;3.75;;;;;;;13.52;27.58;95017.91;5090536;28;20038;-71
2021/03/30 10:33:14;;;;;;;12.35;2.97;;;;;;;13.51;26.25;95018.97;5091029;28;20463;-70
2021/03/30 10:35:40;;;;;;;12.80;2.83;;;;;;;13.54;27.46;95017.59;5090596;28;20532;-70
2021/03/30 10:38:07;;;;;;;6.85;3.15;;;;;;;13.71;27.31;95012.38;5089605;28;20065;-70
2021/03/30 10:40:35;;;;;;;8.98;2.83;;;;;;;13.71;25.28;95014.25;5089880;28;20039;-70
2021/03/30 10:43:30;;;;;;;11.63;3.17;;;;;;;13.65;26.12;95006.31;5091513;28;20111;-70
2021/03/30 10:45:55;;;;;;;8.13;2.88;;;;;;;13.52;26.65;95001.03;5073688;28;20122;-70
2021/03/30 10:48:21;;;;;;;8.20;2.80;;;;;;;13.60;27.93;95003.00;5091795;28;20108;-70
2021/03/30 10:51:25;;;;;;;7.90;3.83;;;;;;;13.75;27.56;94999.94;5090093;28;20152;-70
2021/03/30 10:53:50;;;;;;;17.90;4.30;;;;;;;13.92;26.64;94998.47;5009246;28;20084;-71
2021/03/30 10:56:16;;;;;;;12.30;4.32;;;;;;;14.02;27.29;95003.56;4992446;28;20466;-72
2021/03/30 10:58:41;;;;;;;7.72;3.35;;;;;;;14.07;26.94;94990.06;5036029;28;20032;-72
2021/03/30 11:01:07;;;;;;;5.40;2.40;;;;;;;14.22;26.49;94996.91;5091356;28;20118;-72
2021/03/30 11:03:32;;;;;;;6.53;2.80;;;;;;;14.27;25.03;94993.28;5091201;28;20136;-72
2021/03/30 11:05:57;;;;;;;5.82;3.30;;;;;;;14.03;24.75;94997.13;5089720;28;20722;-71
2021/03/30 11:08:25;;;;;;;7.43;3.03;;;;;;;13.64;25.71;94986.00;5091065;28;20016;-71
2021/03/30 11:10:50;;;;;;;10.05;3.20;;;;;;;13.58;26.11;94978.41;5089537;28;20115;-72
2021/03/30 11:13:15;;;;;;;7.63;2.92;;;;;;;13.60;25.04;94978.88;5090387;28;20450;-71
2021/03/30 11:15:41;;;;;;;6.65;2.53;;;;;;;13.58;25.56;94978.41;5091087;28;20035;-71
2021/03/30 11:18:06;;;;;;;18.15;3.38;;;;;;;13.54;26.18;94982.78;5091126;28;20062;-71
2021/03/30 11:20:31;;;;;;;6.55;3.00;;;;;;;13.47;26.45;94979.72;5090686;28;20039;-70
2021/03/30 11:22:57;;;;;;;7.97;3.42;;;;;;;13.53;27.44;94970.47;5090907;28;20388;-71
2021/03/30 11:25:23;;;;;;;10.13;3.22;;;;;;;13.70;27.23;94962.56;5089575;28;20024;-71
2021/03/30 11:27:52;;;;;;;9.60;3.60;;;;;;;13.79;27.33;94962.63;5089980;28;20084;-71
2021/03/30 11:30:22;;;;;;;6.82;3.15;;;;;;;13.85;27.37;94962.19;5089280;28;20024;-71
2021/03/30 11:33:06;;;;;;;9.75;3.85;;;;;;;14.07;26.65;94963.25;5090498;28;20107;-71
2021/03/30 11:38:23;;;;;;;7.43;2.83;;;;;;;14.32;26.16;94955.63;5059174;28;20191;-70
2021/03/30 11:40:49;;;;;;;10.63;3.30;;;;;;;14.56;25.77;94947.22;5090419;28;20106;-72
2021/03/30 11:43:14;;;;;;;11.57;2.83;;;;;;;14.74;25.29;94943.47;5089244;28;20068;-72
2021/03/30 11:45:40;;;;;;;8.93;2.83;;;;;;;14.89;25.20;94938.78;5090673;28;20486;-71
2021/03/30 11:48:07;;;;;;;6.85;3.00;;;;;;;15.04;24.11;94946.34;5088874;28;20031;-72
2021/03/30 11:50:33;;;;;;;7.38;2.72;;;;;;;15.09;23.77;94942.75;5089977;28;20031;-72
2021/03/30 11:52:59;;;;;;;6.00;2.25;;;;;;;15.15;24.35;94933.44;5088620;28;20103;-71
2021/03/30 11:55:25;;;;;;;6.82;3.30;;;;;;;15.39;23.66;94939.13;5088659;28;20557;-70